sensor_id;sensor_type;location;lat;lon;timestamp;temperature;humidity
75931;DHT22;64609;47.052;15.462;2023-05-07T00:00:51;19.90;69.70
75931;DHT22;64609;47.052;15.462;2023-05-07T00:03:16;19.90;69.80
75931;DHT22;64609;47.052;15.462;2023-05-07T00:05:42;19.90;69.80
75931;DHT22;64609;47.052;15.462;2023-05-07T00:08:07;19.90;69.80
75931;DHT22;64609;47.052;15.462;2023-05-07T00:10:33;19.90;69.80
75931;DHT22;64609;47.052;15.462;2023-05-07T00:12:58;19.90;69.90
75931;DHT22;64609;47.052;15.462;2023-05-07T00:15:24;19.90;69.90
75931;DHT22;64609;47.052;15.462;2023-05-07T00:17:49;19.90;69.80
75931;DHT22;64609;47.052;15.462;2023-05-07T00:20:15;19.80;69.60
75931;DHT22;64609;47.052;15.462;2023-05-07T00:22:41;19.80;69.50
75931;DHT22;64609;47.052;15.462;2023-05-07T00:25:06;19.70;69.50
75931;DHT22;64609;47.052;15.462;2023-05-07T00:27:32;19.70;69.70
75931;DHT22;64609;47.052;15.462;2023-05-07T00:29:58;19.80;69.90
75931;DHT22;64609;47.052;15.462;2023-05-07T00:32:23;19.70;70.00
75931;DHT22;64609;47.052;15.462;2023-05-07T00:34:48;19.60;70.30
75931;DHT22;64609;47.052;15.462;2023-05-07T00:37:16;19.60;70.40
75931;DHT22;64609;47.052;15.462;2023-05-07T00:39:41;19.60;70.60
75931;DHT22;64609;47.052;15.462;2023-05-07T00:42:07;19.60;70.80
75931;DHT22;64609;47.052;15.462;2023-05-07T00:44:33;19.60;70.80
75931;DHT22;64609;47.052;15.462;2023-05-07T00:46:58;19.60;70.90
75931;DHT22;64609;47.052;15.462;2023-05-07T00:49:29;19.60;70.80
75931;DHT22;64609;47.052;15.462;2023-05-07T00:51:57;19.60;70.70
75931;DHT22;64609;47.052;15.462;2023-05-07T00:54:23;19.60;70.80
75931;DHT22;64609;47.052;15.462;2023-05-07T00:56:48;19.60;70.80
75931;DHT22;64609;47.052;15.462;2023-05-07T00:59:14;19.60;70.90
75931;DHT22;64609;47.052;15.462;2023-05-07T01:01:40;19.60;70.80
75931;DHT22;64609;47.052;15.462;2023-05-07T01:04:05;19.60;70.60
75931;DHT22;64609;47.052;15.462;2023-05-07T01:06:31;19.60;70.60
75931;DHT22;64609;47.052;15.462;2023-05-07T01:08:57;19.60;70.60
75931;DHT22;64609;47.052;15.462;2023-05-07T01:11:23;19.60;70.70
75931;DHT22;64609;47.052;15.462;2023-05-07T01:13:48;19.50;70.80
75931;DHT22;64609;47.052;15.462;2023-05-07T01:16:15;19.50;70.80
75931;DHT22;64609;47.052;15.462;2023-05-07T01:18:40;19.50;70.70
75931;DHT22;64609;47.052;15.462;2023-05-07T01:21:06;19.50;70.60
75931;DHT22;64609;47.052;15.462;2023-05-07T01:23:32;19.50;70.60
75931;DHT22;64609;47.052;15.462;2023-05-07T01:25:58;19.40;70.50
75931;DHT22;64609;47.052;15.462;2023-05-07T01:28:24;19.40;70.40
75931;DHT22;64609;47.052;15.462;2023-05-07T01:30:52;19.30;70.40
75931;DHT22;64609;47.052;15.462;2023-05-07T01:33:19;19.30;70.30
75931;DHT22;64609;47.052;15.462;2023-05-07T01:35:47;19.30;70.00
75931;DHT22;64609;47.052;15.462;2023-05-07T01:38:13;19.30;69.80
75931;DHT22;64609;47.052;15.462;2023-05-07T01:40:39;19.30;69.50
75931;DHT22;64609;47.052;15.462;2023-05-07T01:43:05;19.30;69.30
75931;DHT22;64609;47.052;15.462;2023-05-07T01:45:31;19.20;69.20
75931;DHT22;64609;47.052;15.462;2023-05-07T01:47:58;19.20;69.00
75931;DHT22;64609;47.052;15.462;2023-05-07T01:50:23;19.20;68.70
75931;DHT22;64609;47.052;15.462;2023-05-07T01:52:50;19.20;68.40
75931;DHT22;64609;47.052;15.462;2023-05-07T01:55:16;19.20;68.30
75931;DHT22;64609;47.052;15.462;2023-05-07T01:57:41;19.10;68.40
75931;DHT22;64609;47.052;15.462;2023-05-07T02:00:07;19.10;68.40
75931;DHT22;64609;47.052;15.462;2023-05-07T02:02:34;19.10;68.40
75931;DHT22;64609;47.052;15.462;2023-05-07T02:04:59;19.00;68.50
75931;DHT22;64609;47.052;15.462;2023-05-07T02:07:26;19.00;68.70
75931;DHT22;64609;47.052;15.462;2023-05-07T02:09:51;19.00;68.70
75931;DHT22;64609;47.052;15.462;2023-05-07T02:12:17;19.00;68.70
75931;DHT22;64609;47.052;15.462;2023-05-07T02:14:43;18.90;68.60
75931;DHT22;64609;47.052;15.462;2023-05-07T02:17:08;18.90;68.70
75931;DHT22;64609;47.052;15.462;2023-05-07T02:19:34;18.90;68.90
75931;DHT22;64609;47.052;15.462;2023-05-07T02:21:59;18.80;68.80
75931;DHT22;64609;47.052;15.462;2023-05-07T02:24:25;18.80;68.80
75931;DHT22;64609;47.052;15.462;2023-05-07T02:26:50;18.80;68.80
75931;DHT22;64609;47.052;15.462;2023-05-07T02:29:16;18.80;68.80
75931;DHT22;64609;47.052;15.462;2023-05-07T02:31:41;18.80;68.80
75931;DHT22;64609;47.052;15.462;2023-05-07T02:34:07;18.70;68.90
75931;DHT22;64609;47.052;15.462;2023-05-07T02:36:32;18.70;68.80
75931;DHT22;64609;47.052;15.462;2023-05-07T02:38:57;18.70;68.90
75931;DHT22;64609;47.052;15.462;2023-05-07T02:41:23;18.70;68.80
75931;DHT22;64609;47.052;15.462;2023-05-07T02:43:49;18.70;68.80
75931;DHT22;64609;47.052;15.462;2023-05-07T02:46:14;18.70;68.70
75931;DHT22;64609;47.052;15.462;2023-05-07T02:48:40;18.70;68.70
75931;DHT22;64609;47.052;15.462;2023-05-07T02:51:06;18.70;68.70
75931;DHT22;64609;47.052;15.462;2023-05-07T02:53:32;18.60;68.70
75931;DHT22;64609;47.052;15.462;2023-05-07T02:55:58;18.60;68.70
75931;DHT22;64609;47.052;15.462;2023-05-07T02:58:23;18.60;68.70
75931;DHT22;64609;47.052;15.462;2023-05-07T03:00:49;18.60;68.70
75931;DHT22;64609;47.052;15.462;2023-05-07T03:03:15;18.50;68.80
75931;DHT22;64609;47.052;15.462;2023-05-07T03:05:40;18.50;68.70
75931;DHT22;64609;47.052;15.462;2023-05-07T03:08:06;18.50;68.80
75931;DHT22;64609;47.052;15.462;2023-05-07T03:10:32;18.50;68.80
75931;DHT22;64609;47.052;15.462;2023-05-07T03:12:57;18.50;68.80
75931;DHT22;64609;47.052;15.462;2023-05-07T03:15:23;18.50;68.80
75931;DHT22;64609;47.052;15.462;2023-05-07T03:17:48;18.40;68.70
75931;DHT22;64609;47.052;15.462;2023-05-07T03:20:14;18.40;68.70
75931;DHT22;64609;47.052;15.462;2023-05-07T03:22:39;18.40;68.80
75931;DHT22;64609;47.052;15.462;2023-05-07T03:25:05;18.30;68.90
75931;DHT22;64609;47.052;15.462;2023-05-07T03:27:31;18.30;68.90
75931;DHT22;64609;47.052;15.462;2023-05-07T03:29:56;18.20;69.00
75931;DHT22;64609;47.052;15.462;2023-05-07T03:32:22;18.20;69.00
75931;DHT22;64609;47.052;15.462;2023-05-07T03:34:47;18.20;68.90
75931;DHT22;64609;47.052;15.462;2023-05-07T03:37:13;18.20;69.00
75931;DHT22;64609;47.052;15.462;2023-05-07T03:39:38;18.10;70.00
75931;DHT22;64609;47.052;15.462;2023-05-07T03:42:04;18.10;69.10
75931;DHT22;64609;47.052;15.462;2023-05-07T03:44:29;18.10;69.10
75931;DHT22;64609;47.052;15.462;2023-05-07T03:46:55;18.00;69.10
75931;DHT22;64609;47.052;15.462;2023-05-07T03:49:21;18.00;69.20
75931;DHT22;64609;47.052;15.462;2023-05-07T03:51:46;18.00;69.20
75931;DHT22;64609;47.052;15.462;2023-05-07T03:54:12;18.00;69.20
75931;DHT22;64609;47.052;15.462;2023-05-07T03:56:37;17.90;69.30
75931;DHT22;64609;47.052;15.462;2023-05-07T03:59:03;17.90;69.30
75931;DHT22;64609;47.052;15.462;2023-05-07T04:01:28;17.90;69.40
75931;DHT22;64609;47.052;15.462;2023-05-07T04:03:54;17.80;69.60
75931;DHT22;64609;47.052;15.462;2023-05-07T04:06:19;17.90;69.60
75931;DHT22;64609;47.052;15.462;2023-05-07T04:08:45;17.90;69.70
75931;DHT22;64609;47.052;15.462;2023-05-07T04:11:10;18.00;69.70
75931;DHT22;64609;47.052;15.462;2023-05-07T04:13:36;18.00;69.60
75931;DHT22;64609;47.052;15.462;2023-05-07T04:16:02;18.00;69.50
75931;DHT22;64609;47.052;15.462;2023-05-07T04:18:28;18.00;69.40
75931;DHT22;64609;47.052;15.462;2023-05-07T04:20:53;18.10;69.50
75931;DHT22;64609;47.052;15.462;2023-05-07T04:23:19;18.10;69.30
75931;DHT22;64609;47.052;15.462;2023-05-07T04:25:44;18.10;69.20
75931;DHT22;64609;47.052;15.462;2023-05-07T04:28:10;18.20;69.20
75931;DHT22;64609;47.052;15.462;2023-05-07T04:30:36;18.20;69.00
75931;DHT22;64609;47.052;15.462;2023-05-07T04:33:02;18.20;68.90
75931;DHT22;64609;47.052;15.462;2023-05-07T04:35:27;18.20;68.90
75931;DHT22;64609;47.052;15.462;2023-05-07T04:37:53;18.30;68.90
75931;DHT22;64609;47.052;15.462;2023-05-07T04:40:18;18.20;68.90
75931;DHT22;64609;47.052;15.462;2023-05-07T04:42:44;18.30;69.10
75931;DHT22;64609;47.052;15.462;2023-05-07T04:45:10;18.30;68.90
75931;DHT22;64609;47.052;15.462;2023-05-07T04:47:35;18.30;69.00
75931;DHT22;64609;47.052;15.462;2023-05-07T04:50:01;18.30;68.80
75931;DHT22;64609;47.052;15.462;2023-05-07T04:52:27;18.40;68.80
75931;DHT22;64609;47.052;15.462;2023-05-07T04:54:52;18.40;68.70
75931;DHT22;64609;47.052;15.462;2023-05-07T04:57:17;18.40;68.60
75931;DHT22;64609;47.052;15.462;2023-05-07T04:59:43;18.50;68.60
75931;DHT22;64609;47.052;15.462;2023-05-07T05:02:12;18.50;68.30
75931;DHT22;64609;47.052;15.462;2023-05-07T05:04:38;18.50;68.20
75931;DHT22;64609;47.052;15.462;2023-05-07T05:07:03;18.50;68.00
75931;DHT22;64609;47.052;15.462;2023-05-07T05:09:29;18.50;68.00
75931;DHT22;64609;47.052;15.462;2023-05-07T05:11:55;18.60;68.10
75931;DHT22;64609;47.052;15.462;2023-05-07T05:14:20;18.60;67.90
75931;DHT22;64609;47.052;15.462;2023-05-07T05:16:46;18.60;67.80
75931;DHT22;64609;47.052;15.462;2023-05-07T05:19:11;18.60;67.70
75931;DHT22;64609;47.052;15.462;2023-05-07T05:21:37;18.70;67.70
75931;DHT22;64609;47.052;15.462;2023-05-07T05:24:02;18.70;67.80
75931;DHT22;64609;47.052;15.462;2023-05-07T05:26:28;18.80;67.70
75931;DHT22;64609;47.052;15.462;2023-05-07T05:28:53;18.80;68.50
75931;DHT22;64609;47.052;15.462;2023-05-07T05:31:19;18.90;67.50
75931;DHT22;64609;47.052;15.462;2023-05-07T05:33:44;18.90;67.40
75931;DHT22;64609;47.052;15.462;2023-05-07T05:36:10;18.90;67.30
75931;DHT22;64609;47.052;15.462;2023-05-07T05:38:37;19.00;67.20
75931;DHT22;64609;47.052;15.462;2023-05-07T05:41:02;19.10;67.10
75931;DHT22;64609;47.052;15.462;2023-05-07T05:43:28;19.10;67.10
75931;DHT22;64609;47.052;15.462;2023-05-07T05:45:55;19.10;67.00
75931;DHT22;64609;47.052;15.462;2023-05-07T05:48:20;19.10;67.00
75931;DHT22;64609;47.052;15.462;2023-05-07T05:50:46;19.10;67.00
75931;DHT22;64609;47.052;15.462;2023-05-07T05:53:11;19.20;66.90
75931;DHT22;64609;47.052;15.462;2023-05-07T05:55:37;19.20;66.80
75931;DHT22;64609;47.052;15.462;2023-05-07T05:58:02;19.20;66.90
75931;DHT22;64609;47.052;15.462;2023-05-07T06:00:28;19.20;66.60
75931;DHT22;64609;47.052;15.462;2023-05-07T06:02:54;19.30;66.90
75931;DHT22;64609;47.052;15.462;2023-05-07T06:05:20;19.40;66.70
75931;DHT22;64609;47.052;15.462;2023-05-07T06:07:45;19.40;66.50
75931;DHT22;64609;47.052;15.462;2023-05-07T06:10:11;19.50;66.50
75931;DHT22;64609;47.052;15.462;2023-05-07T06:12:36;19.60;66.20
75931;DHT22;64609;47.052;15.462;2023-05-07T06:15:02;19.60;65.80
75931;DHT22;64609;47.052;15.462;2023-05-07T06:17:28;19.70;65.50
75931;DHT22;64609;47.052;15.462;2023-05-07T06:19:53;19.80;65.20
75931;DHT22;64609;47.052;15.462;2023-05-07T06:22:19;19.80;65.20
75931;DHT22;64609;47.052;15.462;2023-05-07T06:24:44;19.90;65.30
75931;DHT22;64609;47.052;15.462;2023-05-07T06:27:10;20.00;65.10
75931;DHT22;64609;47.052;15.462;2023-05-07T06:29:35;20.10;64.90
75931;DHT22;64609;47.052;15.462;2023-05-07T06:32:10;20.30;64.80
75931;DHT22;64609;47.052;15.462;2023-05-07T06:34:36;20.40;64.60
75931;DHT22;64609;47.052;15.462;2023-05-07T06:37:02;20.50;64.20
75931;DHT22;64609;47.052;15.462;2023-05-07T06:39:27;20.60;64.20
75931;DHT22;64609;47.052;15.462;2023-05-07T06:41:53;20.60;64.00
75931;DHT22;64609;47.052;15.462;2023-05-07T06:44:18;20.80;64.00
75931;DHT22;64609;47.052;15.462;2023-05-07T06:46:44;20.90;63.40
75931;DHT22;64609;47.052;15.462;2023-05-07T06:49:10;21.00;63.40
75931;DHT22;64609;47.052;15.462;2023-05-07T06:51:36;21.10;63.20
75931;DHT22;64609;47.052;15.462;2023-05-07T06:54:01;21.20;62.70
75931;DHT22;64609;47.052;15.462;2023-05-07T06:56:27;21.30;62.80
75931;DHT22;64609;47.052;15.462;2023-05-07T06:58:52;21.50;62.40
75931;DHT22;64609;47.052;15.462;2023-05-07T07:01:18;21.70;61.60
75931;DHT22;64609;47.052;15.462;2023-05-07T07:03:43;21.80;60.60
75931;DHT22;64609;47.052;15.462;2023-05-07T07:06:09;22.00;60.40
75931;DHT22;64609;47.052;15.462;2023-05-07T07:08:34;22.10;59.70
75931;DHT22;64609;47.052;15.462;2023-05-07T07:11:00;22.20;58.80
75931;DHT22;64609;47.052;15.462;2023-05-07T07:13:26;22.20;58.80
75931;DHT22;64609;47.052;15.462;2023-05-07T07:15:51;22.30;59.40
75931;DHT22;64609;47.052;15.462;2023-05-07T07:18:17;22.50;59.10
75931;DHT22;64609;47.052;15.462;2023-05-07T07:20:43;22.60;58.90
75931;DHT22;64609;47.052;15.462;2023-05-07T07:23:09;22.70;58.00
75931;DHT22;64609;47.052;15.462;2023-05-07T07:25:35;22.70;57.60
75931;DHT22;64609;47.052;15.462;2023-05-07T07:28:00;22.70;57.70
75931;DHT22;64609;47.052;15.462;2023-05-07T07:30:26;22.90;58.00
75931;DHT22;64609;47.052;15.462;2023-05-07T07:32:51;23.00;57.70
75931;DHT22;64609;47.052;15.462;2023-05-07T07:35:18;23.10;57.40
75931;DHT22;64609;47.052;15.462;2023-05-07T07:37:43;23.20;57.00
75931;DHT22;64609;47.052;15.462;2023-05-07T07:40:09;23.20;57.20
75931;DHT22;64609;47.052;15.462;2023-05-07T07:42:34;23.30;56.60
75931;DHT22;64609;47.052;15.462;2023-05-07T07:45:00;23.40;56.90
75931;DHT22;64609;47.052;15.462;2023-05-07T07:47:25;23.60;56.70
75931;DHT22;64609;47.052;15.462;2023-05-07T07:49:51;23.70;55.90
75931;DHT22;64609;47.052;15.462;2023-05-07T07:52:16;23.70;55.00
75931;DHT22;64609;47.052;15.462;2023-05-07T07:54:42;23.40;55.60
75931;DHT22;64609;47.052;15.462;2023-05-07T07:57:08;23.20;56.20
75931;DHT22;64609;47.052;15.462;2023-05-07T07:59:34;23.30;56.10
75931;DHT22;64609;47.052;15.462;2023-05-07T08:01:59;23.40;56.20
75931;DHT22;64609;47.052;15.462;2023-05-07T08:04:25;23.70;56.10
75931;DHT22;64609;47.052;15.462;2023-05-07T08:06:50;23.80;55.30
75931;DHT22;64609;47.052;15.462;2023-05-07T08:09:16;23.90;55.60
75931;DHT22;64609;47.052;15.462;2023-05-07T08:11:41;24.10;55.10
75931;DHT22;64609;47.052;15.462;2023-05-07T08:14:07;24.30;55.10
75931;DHT22;64609;47.052;15.462;2023-05-07T08:16:32;24.50;54.20
75931;DHT22;64609;47.052;15.462;2023-05-07T08:18:58;24.50;53.70
75931;DHT22;64609;47.052;15.462;2023-05-07T08:21:23;24.50;53.40
75931;DHT22;64609;47.052;15.462;2023-05-07T08:23:49;24.60;53.20
75931;DHT22;64609;47.052;15.462;2023-05-07T08:26:14;24.70;52.70
75931;DHT22;64609;47.052;15.462;2023-05-07T08:28:40;24.80;53.10
75931;DHT22;64609;47.052;15.462;2023-05-07T08:31:05;25.00;52.40
75931;DHT22;64609;47.052;15.462;2023-05-07T08:33:31;25.20;51.70
75931;DHT22;64609;47.052;15.462;2023-05-07T08:35:56;25.10;52.00
75931;DHT22;64609;47.052;15.462;2023-05-07T08:38:22;25.20;51.70
75931;DHT22;64609;47.052;15.462;2023-05-07T08:40:47;25.10;51.00
75931;DHT22;64609;47.052;15.462;2023-05-07T08:43:13;25.10;51.80
75931;DHT22;64609;47.052;15.462;2023-05-07T08:45:40;25.60;51.80
75931;DHT22;64609;47.052;15.462;2023-05-07T08:48:08;26.30;49.70
75931;DHT22;64609;47.052;15.462;2023-05-07T08:50:37;26.90;48.40
75931;DHT22;64609;47.052;15.462;2023-05-07T08:53:03;28.20;47.40
75931;DHT22;64609;47.052;15.462;2023-05-07T08:55:29;29.70;44.60
75931;DHT22;64609;47.052;15.462;2023-05-07T08:57:55;30.90;41.60
75931;DHT22;64609;47.052;15.462;2023-05-07T09:00:20;31.30;39.40
75931;DHT22;64609;47.052;15.462;2023-05-07T09:02:46;31.00;39.80
75931;DHT22;64609;47.052;15.462;2023-05-07T09:05:11;31.90;39.80
75931;DHT22;64609;47.052;15.462;2023-05-07T09:07:37;32.60;38.30
75931;DHT22;64609;47.052;15.462;2023-05-07T09:10:03;31.70;38.20
75931;DHT22;64609;47.052;15.462;2023-05-07T09:12:29;30.20;39.80
75931;DHT22;64609;47.052;15.462;2023-05-07T09:14:55;29.70;41.60
75931;DHT22;64609;47.052;15.462;2023-05-07T09:17:20;29.80;41.90
75931;DHT22;64609;47.052;15.462;2023-05-07T09:19:46;29.50;42.20
75931;DHT22;64609;47.052;15.462;2023-05-07T09:22:12;29.10;43.30
75931;DHT22;64609;47.052;15.462;2023-05-07T09:24:38;28.70;42.40
75931;DHT22;64609;47.052;15.462;2023-05-07T09:27:04;29.40;42.50
75931;DHT22;64609;47.052;15.462;2023-05-07T09:29:30;30.20;41.50
75931;DHT22;64609;47.052;15.462;2023-05-07T09:32:01;30.80;39.90
75931;DHT22;64609;47.052;15.462;2023-05-07T09:34:27;31.40;39.40
75931;DHT22;64609;47.052;15.462;2023-05-07T09:36:53;32.00;38.40
75931;DHT22;64609;47.052;15.462;2023-05-07T09:39:19;32.90;37.70
75931;DHT22;64609;47.052;15.462;2023-05-07T09:41:48;33.70;36.00
75931;DHT22;64609;47.052;15.462;2023-05-07T09:44:14;34.10;34.60
75931;DHT22;64609;47.052;15.462;2023-05-07T09:46:41;33.90;34.10
75931;DHT22;64609;47.052;15.462;2023-05-07T09:49:07;33.70;35.50
75931;DHT22;64609;47.052;15.462;2023-05-07T09:51:57;34.10;34.70
75931;DHT22;64609;47.052;15.462;2023-05-07T09:54:25;32.90;35.30
75931;DHT22;64609;47.052;15.462;2023-05-07T09:56:51;31.70;37.60
75931;DHT22;64609;47.052;15.462;2023-05-07T09:59:17;30.70;38.80
75931;DHT22;64609;47.052;15.462;2023-05-07T10:01:43;30.00;40.00
75931;DHT22;64609;47.052;15.462;2023-05-07T10:04:09;29.40;40.90
75931;DHT22;64609;47.052;15.462;2023-05-07T10:06:35;29.20;42.00
75931;DHT22;64609;47.052;15.462;2023-05-07T10:09:02;29.80;41.40
75931;DHT22;64609;47.052;15.462;2023-05-07T10:11:28;30.30;40.50
75931;DHT22;64609;47.052;15.462;2023-05-07T10:13:53;30.40;40.50
75931;DHT22;64609;47.052;15.462;2023-05-07T10:16:20;30.10;40.80
75931;DHT22;64609;47.052;15.462;2023-05-07T10:18:46;29.70;41.10
75931;DHT22;64609;47.052;15.462;2023-05-07T10:21:18;29.40;41.60
75931;DHT22;64609;47.052;15.462;2023-05-07T10:23:51;29.30;42.20
75931;DHT22;64609;47.052;15.462;2023-05-07T10:26:19;29.50;41.70
75931;DHT22;64609;47.052;15.462;2023-05-07T10:28:46;29.50;41.90
75931;DHT22;64609;47.052;15.462;2023-05-07T10:33:46;30.40;40.10
75931;DHT22;64609;47.052;15.462;2023-05-07T10:36:12;30.80;39.60
75931;DHT22;64609;47.052;15.462;2023-05-07T10:38:38;31.00;39.20
75931;DHT22;64609;47.052;15.462;2023-05-07T10:41:05;31.30;39.10
75931;DHT22;64609;47.052;15.462;2023-05-07T10:43:38;31.60;37.40
75931;DHT22;64609;47.052;15.462;2023-05-07T10:49:21;31.60;36.70
75931;DHT22;64609;47.052;15.462;2023-05-07T10:51:22;31.30;37.60
75931;DHT22;64609;47.052;15.462;2023-05-07T10:53:47;31.30;37.30
75931;DHT22;64609;47.052;15.462;2023-05-07T10:58:45;31.30;37.60
75931;DHT22;64609;47.052;15.462;2023-05-07T11:01:10;31.80;37.40
75931;DHT22;64609;47.052;15.462;2023-05-07T11:04:12;32.40;37.50
75931;DHT22;64609;47.052;15.462;2023-05-07T11:06:23;32.70;35.60
75931;DHT22;64609;47.052;15.462;2023-05-07T11:08:52;32.40;35.60
75931;DHT22;64609;47.052;15.462;2023-05-07T11:11:18;32.20;36.20
75931;DHT22;64609;47.052;15.462;2023-05-07T11:13:47;32.10;36.90
75931;DHT22;64609;47.052;15.462;2023-05-07T11:18:49;31.90;36.60
75931;DHT22;64609;47.052;15.462;2023-05-07T11:23:59;31.90;36.60
75931;DHT22;64609;47.052;15.462;2023-05-07T11:26:26;31.80;36.20
75931;DHT22;64609;47.052;15.462;2023-05-07T11:28:51;31.40;36.90
75931;DHT22;64609;47.052;15.462;2023-05-07T11:31:21;31.10;37.60
75931;DHT22;64609;47.052;15.462;2023-05-07T11:33:46;31.20;38.40
75931;DHT22;64609;47.052;15.462;2023-05-07T11:36:12;31.40;38.20
75931;DHT22;64609;47.052;15.462;2023-05-07T11:38:37;31.50;37.90
75931;DHT22;64609;47.052;15.462;2023-05-07T11:41:04;31.90;37.50
75931;DHT22;64609;47.052;15.462;2023-05-07T11:43:30;31.90;37.40
75931;DHT22;64609;47.052;15.462;2023-05-07T11:46:04;31.50;37.80
75931;DHT22;64609;47.052;15.462;2023-05-07T11:48:30;31.10;37.00
75931;DHT22;64609;47.052;15.462;2023-05-07T11:51:03;31.00;37.80
75931;DHT22;64609;47.052;15.462;2023-05-07T11:53:36;31.10;37.60
75931;DHT22;64609;47.052;15.462;2023-05-07T11:56:09;31.40;37.30
75931;DHT22;64609;47.052;15.462;2023-05-07T11:58:35;31.60;37.70
75931;DHT22;64609;47.052;15.462;2023-05-07T12:01:00;31.30;36.90
75931;DHT22;64609;47.052;15.462;2023-05-07T12:03:26;31.10;38.10
75931;DHT22;64609;47.052;15.462;2023-05-07T12:05:51;31.30;37.80
75931;DHT22;64609;47.052;15.462;2023-05-07T12:08:18;31.40;37.80
75931;DHT22;64609;47.052;15.462;2023-05-07T12:10:44;31.50;37.30
75931;DHT22;64609;47.052;15.462;2023-05-07T12:13:16;31.60;37.30
75931;DHT22;64609;47.052;15.462;2023-05-07T12:15:42;31.40;37.50
75931;DHT22;64609;47.052;15.462;2023-05-07T12:18:08;31.00;37.80
75931;DHT22;64609;47.052;15.462;2023-05-07T12:20:34;30.60;37.60
75931;DHT22;64609;47.052;15.462;2023-05-07T12:23:01;30.00;38.60
75931;DHT22;64609;47.052;15.462;2023-05-07T12:25:26;29.70;38.90
75931;DHT22;64609;47.052;15.462;2023-05-07T12:27:52;29.50;40.30
75931;DHT22;64609;47.052;15.462;2023-05-07T12:30:18;29.20;39.30
75931;DHT22;64609;47.052;15.462;2023-05-07T12:32:44;28.90;40.00
75931;DHT22;64609;47.052;15.462;2023-05-07T12:35:10;28.80;40.50
75931;DHT22;64609;47.052;15.462;2023-05-07T12:37:36;28.90;40.30
75931;DHT22;64609;47.052;15.462;2023-05-07T12:40:05;28.90;40.20
75931;DHT22;64609;47.052;15.462;2023-05-07T12:42:38;29.00;39.80
75931;DHT22;64609;47.052;15.462;2023-05-07T12:45:10;28.80;40.00
75931;DHT22;64609;47.052;15.462;2023-05-07T12:47:36;28.70;40.20
75931;DHT22;64609;47.052;15.462;2023-05-07T12:50:04;28.70;39.90
75931;DHT22;64609;47.052;15.462;2023-05-07T12:52:30;28.50;40.40
75931;DHT22;64609;47.052;15.462;2023-05-07T12:54:56;28.40;40.30
75931;DHT22;64609;47.052;15.462;2023-05-07T12:57:22;28.40;40.50
75931;DHT22;64609;47.052;15.462;2023-05-07T12:59:47;28.40;40.50
75931;DHT22;64609;47.052;15.462;2023-05-07T13:02:13;28.30;41.70
75931;DHT22;64609;47.052;15.462;2023-05-07T13:04:38;28.10;40.50
75931;DHT22;64609;47.052;15.462;2023-05-07T13:07:04;27.90;41.10
75931;DHT22;64609;47.052;15.462;2023-05-07T13:09:30;27.80;42.00
75931;DHT22;64609;47.052;15.462;2023-05-07T13:11:56;27.70;42.70
75931;DHT22;64609;47.052;15.462;2023-05-07T13:14:21;27.60;42.70
75931;DHT22;64609;47.052;15.462;2023-05-07T13:16:47;27.40;43.70
75931;DHT22;64609;47.052;15.462;2023-05-07T13:19:13;27.30;45.50
75931;DHT22;64609;47.052;15.462;2023-05-07T13:21:38;27.10;47.10
75931;DHT22;64609;47.052;15.462;2023-05-07T13:24:04;26.90;48.90
75931;DHT22;64609;47.052;15.462;2023-05-07T13:26:30;26.70;50.60
75931;DHT22;64609;47.052;15.462;2023-05-07T13:28:56;26.50;51.60
75931;DHT22;64609;47.052;15.462;2023-05-07T13:31:22;26.30;53.60
75931;DHT22;64609;47.052;15.462;2023-05-07T13:33:47;26.00;54.80
75931;DHT22;64609;47.052;15.462;2023-05-07T13:36:13;25.80;53.90
75931;DHT22;64609;47.052;15.462;2023-05-07T13:38:39;25.50;54.60
75931;DHT22;64609;47.052;15.462;2023-05-07T13:41:04;25.40;55.90
75931;DHT22;64609;47.052;15.462;2023-05-07T13:43:30;25.30;57.30
75931;DHT22;64609;47.052;15.462;2023-05-07T13:45:57;25.10;57.50
75931;DHT22;64609;47.052;15.462;2023-05-07T13:48:22;25.00;57.70
75931;DHT22;64609;47.052;15.462;2023-05-07T13:50:48;24.80;57.80
75931;DHT22;64609;47.052;15.462;2023-05-07T13:53:13;24.70;58.20
75931;DHT22;64609;47.052;15.462;2023-05-07T13:55:40;24.50;58.20
75931;DHT22;64609;47.052;15.462;2023-05-07T13:58:06;24.40;59.50
75931;DHT22;64609;47.052;15.462;2023-05-07T14:00:31;24.20;59.80
75931;DHT22;64609;47.052;15.462;2023-05-07T14:02:57;24.10;59.10
75931;DHT22;64609;47.052;15.462;2023-05-07T14:05:23;23.80;59.50
75931;DHT22;64609;47.052;15.462;2023-05-07T14:07:51;23.80;60.10
75931;DHT22;64609;47.052;15.462;2023-05-07T14:10:17;23.70;60.30
75931;DHT22;64609;47.052;15.462;2023-05-07T14:12:43;23.60;60.60
75931;DHT22;64609;47.052;15.462;2023-05-07T14:15:09;23.50;60.50
75931;DHT22;64609;47.052;15.462;2023-05-07T14:17:34;23.40;60.70
75931;DHT22;64609;47.052;15.462;2023-05-07T14:20:00;23.40;61.10
75931;DHT22;64609;47.052;15.462;2023-05-07T14:22:26;23.30;61.60
75931;DHT22;64609;47.052;15.462;2023-05-07T14:24:51;23.20;61.80
75931;DHT22;64609;47.052;15.462;2023-05-07T14:27:17;23.20;61.80
75931;DHT22;64609;47.052;15.462;2023-05-07T14:29:42;23.10;62.10
75931;DHT22;64609;47.052;15.462;2023-05-07T14:32:08;23.10;62.40
75931;DHT22;64609;47.052;15.462;2023-05-07T14:34:33;23.00;62.90
75931;DHT22;64609;47.052;15.462;2023-05-07T14:36:59;23.00;63.30
75931;DHT22;64609;47.052;15.462;2023-05-07T14:39:25;23.00;63.10
75931;DHT22;64609;47.052;15.462;2023-05-07T14:41:51;22.90;62.60
75931;DHT22;64609;47.052;15.462;2023-05-07T14:44:16;22.90;63.30
75931;DHT22;64609;47.052;15.462;2023-05-07T14:46:42;22.80;63.60
75931;DHT22;64609;47.052;15.462;2023-05-07T14:49:07;22.90;63.80
75931;DHT22;64609;47.052;15.462;2023-05-07T14:51:41;22.80;63.30
75931;DHT22;64609;47.052;15.462;2023-05-07T14:54:07;22.80;63.30
75931;DHT22;64609;47.052;15.462;2023-05-07T14:56:33;22.70;63.00
75931;DHT22;64609;47.052;15.462;2023-05-07T14:59:00;22.70;63.20
75931;DHT22;64609;47.052;15.462;2023-05-07T15:01:25;22.60;63.30
75931;DHT22;64609;47.052;15.462;2023-05-07T15:03:51;22.50;63.20
75931;DHT22;64609;47.052;15.462;2023-05-07T15:06:16;22.40;63.10
75931;DHT22;64609;47.052;15.462;2023-05-07T15:08:42;22.30;63.10
75931;DHT22;64609;47.052;15.462;2023-05-07T15:11:07;22.30;63.40
75931;DHT22;64609;47.052;15.462;2023-05-07T15:13:33;22.30;63.70
75931;DHT22;64609;47.052;15.462;2023-05-07T15:15:58;22.20;63.20
75931;DHT22;64609;47.052;15.462;2023-05-07T15:18:24;22.20;64.30
75931;DHT22;64609;47.052;15.462;2023-05-07T15:20:49;22.30;64.50